sensor_id;sensor_type;location;lat;lon;timestamp;temperature;humidity
39779;DHT22;25454;49.878;8.618;2022-09-09T00:02:21;17.90;99.90
39779;DHT22;25454;49.878;8.618;2022-09-09T00:07:41;17.90;99.90
39779;DHT22;25454;49.878;8.618;2022-09-09T00:13:05;17.70;99.90
39779;DHT22;25454;49.878;8.618;2022-09-09T00:18:23;17.50;99.90
39779;DHT22;25454;49.878;8.618;2022-09-09T00:23:28;17.50;99.90
39779;DHT22;25454;49.878;8.618;2022-09-09T00:28:29;17.40;99.90
39779;DHT22;25454;49.878;8.618;2022-09-09T00:33:32;17.30;99.90
39779;DHT22;25454;49.878;8.618;2022-09-09T00:38:36;17.40;99.90
39779;DHT22;25454;49.878;8.618;2022-09-09T00:43:39;17.40;99.90
39779;DHT22;25454;49.878;8.618;2022-09-09T00:49:15;17.40;99.90
39779;DHT22;25454;49.878;8.618;2022-09-09T00:59:50;17.70;99.90
39779;DHT22;25454;49.878;8.618;2022-09-09T01:04:51;17.70;99.90
39779;DHT22;25454;49.878;8.618;2022-09-09T01:09:55;17.70;99.90
39779;DHT22;25454;49.878;8.618;2022-09-09T01:31:15;17.70;99.90
39779;DHT22;25454;49.878;8.618;2022-09-09T01:36:32;17.60;99.90
39779;DHT22;25454;49.878;8.618;2022-09-09T01:41:36;17.50;99.90
39779;DHT22;25454;49.878;8.618;2022-09-09T01:46:36;17.40;99.90
39779;DHT22;25454;49.878;8.618;2022-09-09T01:51:37;17.30;99.90
39779;DHT22;25454;49.878;8.618;2022-09-09T01:57:36;17.20;99.90
39779;DHT22;25454;49.878;8.618;2022-09-09T02:07:46;17.20;99.90
39779;DHT22;25454;49.878;8.618;2022-09-09T02:13:10;17.20;99.90
39779;DHT22;25454;49.878;8.618;2022-09-09T02:18:13;17.20;99.90
39779;DHT22;25454;49.878;8.618;2022-09-09T02:23:15;17.20;99.90
39779;DHT22;25454;49.878;8.618;2022-09-09T02:28:17;17.20;99.90
39779;DHT22;25454;49.878;8.618;2022-09-09T02:33:18;17.30;99.90
39779;DHT22;25454;49.878;8.618;2022-09-09T02:38:21;17.40;99.90
39779;DHT22;25454;49.878;8.618;2022-09-09T02:43:25;17.50;99.90
39779;DHT22;25454;49.878;8.618;2022-09-09T02:48:55;17.60;99.90
39779;DHT22;25454;49.878;8.618;2022-09-09T02:54:20;17.60;99.90
39779;DHT22;25454;49.878;8.618;2022-09-09T02:59:25;17.60;99.90
39779;DHT22;25454;49.878;8.618;2022-09-09T03:04:26;17.60;99.90
39779;DHT22;25454;49.878;8.618;2022-09-09T03:09:27;17.60;99.90
39779;DHT22;25454;49.878;8.618;2022-09-09T03:14:27;17.50;99.90
39779;DHT22;25454;49.878;8.618;2022-09-09T03:19:28;17.40;99.90
39779;DHT22;25454;49.878;8.618;2022-09-09T03:24:30;17.40;99.90
39779;DHT22;25454;49.878;8.618;2022-09-09T03:29:30;17.20;99.90
39779;DHT22;25454;49.878;8.618;2022-09-09T03:34:34;17.20;99.90
39779;DHT22;25454;49.878;8.618;2022-09-09T03:39:35;17.10;99.90
39779;DHT22;25454;49.878;8.618;2022-09-09T03:44:35;17.00;99.90
39779;DHT22;25454;49.878;8.618;2022-09-09T03:49:36;17.00;99.90
39779;DHT22;25454;49.878;8.618;2022-09-09T03:54:40;17.00;99.90
39779;DHT22;25454;49.878;8.618;2022-09-09T03:59:43;17.00;99.90
39779;DHT22;25454;49.878;8.618;2022-09-09T04:04:44;16.90;99.90
39779;DHT22;25454;49.878;8.618;2022-09-09T04:09:44;16.80;99.90
39779;DHT22;25454;49.878;8.618;2022-09-09T04:14:45;16.70;99.90
39779;DHT22;25454;49.878;8.618;2022-09-09T04:19:45;16.60;99.90
39779;DHT22;25454;49.878;8.618;2022-09-09T04:24:46;16.60;99.90
39779;DHT22;25454;49.878;8.618;2022-09-09T04:29:47;16.70;99.90
39779;DHT22;25454;49.878;8.618;2022-09-09T04:34:47;16.80;99.90
39779;DHT22;25454;49.878;8.618;2022-09-09T04:39:48;16.80;99.90
39779;DHT22;25454;49.878;8.618;2022-09-09T04:44:48;16.80;99.90
39779;DHT22;25454;49.878;8.618;2022-09-09T04:49:49;16.70;99.90
39779;DHT22;25454;49.878;8.618;2022-09-09T04:54:50;16.70;99.90
39779;DHT22;25454;49.878;8.618;2022-09-09T04:59:50;16.70;99.90
39779;DHT22;25454;49.878;8.618;2022-09-09T05:04:51;16.60;99.90
39779;DHT22;25454;49.878;8.618;2022-09-09T05:09:52;16.60;99.90
39779;DHT22;25454;49.878;8.618;2022-09-09T05:14:52;16.60;99.90
39779;DHT22;25454;49.878;8.618;2022-09-09T05:19:53;16.70;99.90
39779;DHT22;25454;49.878;8.618;2022-09-09T05:24:53;16.80;99.90
39779;DHT22;25454;49.878;8.618;2022-09-09T05:29:54;16.80;99.90
39779;DHT22;25454;49.878;8.618;2022-09-09T05:34:54;16.90;99.90
39779;DHT22;25454;49.878;8.618;2022-09-09T05:39:55;16.90;99.90
39779;DHT22;25454;49.878;8.618;2022-09-09T05:44:56;17.00;99.90
39779;DHT22;25454;49.878;8.618;2022-09-09T05:49:58;16.90;99.90
39779;DHT22;25454;49.878;8.618;2022-09-09T05:54:59;16.90;99.90
39779;DHT22;25454;49.878;8.618;2022-09-09T06:00:00;16.90;99.90
39779;DHT22;25454;49.878;8.618;2022-09-09T06:05:01;17.00;99.90
39779;DHT22;25454;49.878;8.618;2022-09-09T06:10:02;17.50;99.90
39779;DHT22;25454;49.878;8.618;2022-09-09T06:15:03;18.30;99.90
39779;DHT22;25454;49.878;8.618;2022-09-09T06:20:07;18.30;99.90
39779;DHT22;25454;49.878;8.618;2022-09-09T06:25:09;18.50;99.90
39779;DHT22;25454;49.878;8.618;2022-09-09T06:30:10;18.70;99.90
39779;DHT22;25454;49.878;8.618;2022-09-09T06:35:11;18.90;99.90
39779;DHT22;25454;49.878;8.618;2022-09-09T06:40:12;19.00;99.90
39779;DHT22;25454;49.878;8.618;2022-09-09T06:45:12;19.30;99.90
39779;DHT22;25454;49.878;8.618;2022-09-09T06:50:13;19.60;99.90
39779;DHT22;25454;49.878;8.618;2022-09-09T06:55:15;19.70;99.90
39779;DHT22;25454;49.878;8.618;2022-09-09T07:00:16;19.80;99.90
39779;DHT22;25454;49.878;8.618;2022-09-09T07:05:17;19.80;99.90
39779;DHT22;25454;49.878;8.618;2022-09-09T07:10:17;19.40;99.90
39779;DHT22;25454;49.878;8.618;2022-09-09T07:15:18;19.30;99.90
39779;DHT22;25454;49.878;8.618;2022-09-09T07:20:19;19.30;99.90
39779;DHT22;25454;49.878;8.618;2022-09-09T07:25:20;19.30;99.90
39779;DHT22;25454;49.878;8.618;2022-09-09T07:30:22;19.20;99.90
39779;DHT22;25454;49.878;8.618;2022-09-09T07:35:23;19.20;99.90
39779;DHT22;25454;49.878;8.618;2022-09-09T07:40:26;19.20;99.90
39779;DHT22;25454;49.878;8.618;2022-09-09T07:45:27;19.20;99.90
39779;DHT22;25454;49.878;8.618;2022-09-09T07:50:31;19.10;99.90
39779;DHT22;25454;49.878;8.618;2022-09-09T07:55:35;19.50;99.90
39779;DHT22;25454;49.878;8.618;2022-09-09T08:00:38;20.10;99.90
39779;DHT22;25454;49.878;8.618;2022-09-09T08:05:43;20.70;99.90
39779;DHT22;25454;49.878;8.618;2022-09-09T08:10:47;21.00;99.90
39779;DHT22;25454;49.878;8.618;2022-09-09T08:15:47;21.00;99.90
39779;DHT22;25454;49.878;8.618;2022-09-09T08:20:50;20.70;99.90
39779;DHT22;25454;49.878;8.618;2022-09-09T08:26:11;20.40;99.90
39779;DHT22;25454;49.878;8.618;2022-09-09T08:31:16;20.30;99.90
39779;DHT22;25454;49.878;8.618;2022-09-09T08:36:20;20.50;99.90
39779;DHT22;25454;49.878;8.618;2022-09-09T08:41:51;20.70;99.90
39779;DHT22;25454;49.878;8.618;2022-09-09T08:52:19;20.90;99.90
39779;DHT22;25454;49.878;8.618;2022-09-09T08:57:25;21.40;99.90
39779;DHT22;25454;49.878;8.618;2022-09-09T09:12:53;20.60;99.90
39779;DHT22;25454;49.878;8.618;2022-09-09T09:17:54;19.50;99.90
39779;DHT22;25454;49.878;8.618;2022-09-09T09:22:57;18.50;99.90
39779;DHT22;25454;49.878;8.618;2022-09-09T09:28:29;18.40;99.90
39779;DHT22;25454;49.878;8.618;2022-09-09T09:38:36;21.20;99.90
39779;DHT22;25454;49.878;8.618;2022-09-09T09:43:40;25.40;99.90
39779;DHT22;25454;49.878;8.618;2022-09-09T09:48:41;27.70;99.90
39779;DHT22;25454;49.878;8.618;2022-09-09T09:53:42;29.60;93.20
39779;DHT22;25454;49.878;8.618;2022-09-09T10:03:52;27.70;91.50
39779;DHT22;25454;49.878;8.618;2022-09-09T10:08:53;26.00;95.20
39779;DHT22;25454;49.878;8.618;2022-09-09T10:19:04;25.80;97.60
39779;DHT22;25454;49.878;8.618;2022-09-09T10:34:45;30.50;65.20
39779;DHT22;25454;49.878;8.618;2022-09-09T10:39:48;27.50;75.40
39779;DHT22;25454;49.878;8.618;2022-09-09T10:45:15;25.20;86.70
39779;DHT22;25454;49.878;8.618;2022-09-09T10:55:43;22.40;99.80
39779;DHT22;25454;49.878;8.618;2022-09-09T11:00:57;21.70;99.90
39779;DHT22;25454;49.878;8.618;2022-09-09T11:06:14;21.50;99.90
39779;DHT22;25454;49.878;8.618;2022-09-09T11:11:18;22.80;99.90
39779;DHT22;25454;49.878;8.618;2022-09-09T11:21:47;23.00;99.90
39779;DHT22;25454;49.878;8.618;2022-09-09T11:26:58;23.30;99.90
39779;DHT22;25454;49.878;8.618;2022-09-09T11:32:29;23.60;99.90
39779;DHT22;25454;49.878;8.618;2022-09-09T11:42:48;23.60;99.90
39779;DHT22;25454;49.878;8.618;2022-09-09T11:47:55;23.00;99.90
39779;DHT22;25454;49.878;8.618;2022-09-09T11:58:17;22.30;99.90
39779;DHT22;25454;49.878;8.618;2022-09-09T12:03:36;22.30;99.90
39779;DHT22;25454;49.878;8.618;2022-09-09T12:08:42;22.40;99.90
39779;DHT22;25454;49.878;8.618;2022-09-09T12:13:52;22.30;99.90
39779;DHT22;25454;49.878;8.618;2022-09-09T12:19:06;22.10;99.90
39779;DHT22;25454;49.878;8.618;2022-09-09T12:24:30;22.60;99.90
39779;DHT22;25454;49.878;8.618;2022-09-09T12:29:58;22.90;99.90
39779;DHT22;25454;49.878;8.618;2022-09-09T12:35:08;22.70;99.90
39779;DHT22;25454;49.878;8.618;2022-09-09T12:40:22;22.10;99.90
39779;DHT22;25454;49.878;8.618;2022-09-09T12:45:26;21.80;99.90
39779;DHT22;25454;49.878;8.618;2022-09-09T12:50:32;21.80;99.90
39779;DHT22;25454;49.878;8.618;2022-09-09T12:55:37;22.10;99.90
39779;DHT22;25454;49.878;8.618;2022-09-09T13:00:52;22.20;98.70
39779;DHT22;25454;49.878;8.618;2022-09-09T13:06:11;22.20;98.50
39779;DHT22;25454;49.878;8.618;2022-09-09T13:11:17;22.10;98.50
39779;DHT22;25454;49.878;8.618;2022-09-09T13:16:29;21.90;98.80
39779;DHT22;25454;49.878;8.618;2022-09-09T13:21:38;21.70;99.90
39779;DHT22;25454;49.878;8.618;2022-09-09T13:26:39;21.60;99.90
39779;DHT22;25454;49.878;8.618;2022-09-09T13:31:40;21.30;99.90
39779;DHT22;25454;49.878;8.618;2022-09-09T13:36:41;21.10;99.90
39779;DHT22;25454;49.878;8.618;2022-09-09T13:41:50;21.00;99.90
39779;DHT22;25454;49.878;8.618;2022-09-09T13:47:18;20.80;99.90
39779;DHT22;25454;49.878;8.618;2022-09-09T13:52:27;20.60;99.90
39779;DHT22;25454;49.878;8.618;2022-09-09T13:57:31;21.10;99.90
39779;DHT22;25454;49.878;8.618;2022-09-09T14:02:31;22.10;99.90
39779;DHT22;25454;49.878;8.618;2022-09-09T14:07:32;22.50;99.90
39779;DHT22;25454;49.878;8.618;2022-09-09T14:12:36;22.40;99.90
39779;DHT22;25454;49.878;8.618;2022-09-09T14:17:37;22.20;99.90
39779;DHT22;25454;49.878;8.618;2022-09-09T14:22:41;22.00;99.90
39779;DHT22;25454;49.878;8.618;2022-09-09T14:27:42;21.90;99.90
39779;DHT22;25454;49.878;8.618;2022-09-09T14:32:42;21.70;99.90
39779;DHT22;25454;49.878;8.618;2022-09-09T14:37:43;21.40;99.90
39779;DHT22;25454;49.878;8.618;2022-09-09T14:42:44;21.10;99.90
39779;DHT22;25454;49.878;8.618;2022-09-09T14:47:45;20.90;99.90
39779;DHT22;25454;49.878;8.618;2022-09-09T14:52:46;20.70;99.90
39779;DHT22;25454;49.878;8.618;2022-09-09T14:57:47;20.60;99.90
39779;DHT22;25454;49.878;8.618;2022-09-09T15:02:47;20.90;99.90
39779;DHT22;25454;49.878;8.618;2022-09-09T15:07:51;21.00;99.90
39779;DHT22;25454;49.878;8.618;2022-09-09T15:12:52;21.10;99.90
39779;DHT22;25454;49.878;8.618;2022-09-09T15:17:53;21.10;99.90
39779;DHT22;25454;49.878;8.618;2022-09-09T15:22:53;21.20;99.90
39779;DHT22;25454;49.878;8.618;2022-09-09T15:27:54;21.20;99.90
39779;DHT22;25454;49.878;8.618;2022-09-09T15:32:55;21.20;99.90
39779;DHT22;25454;49.878;8.618;2022-09-09T15:37:56;21.20;99.90
39779;DHT22;25454;49.878;8.618;2022-09-09T15:42:58;21.10;99.90
39779;DHT22;25454;49.878;8.618;2022-09-09T15:47:59;21.10;99.90
39779;DHT22;25454;49.878;8.618;2022-09-09T15:53:00;21.00;99.90
39779;DHT22;25454;49.878;8.618;2022-09-09T15:58:01;21.10;99.90
39779;DHT22;25454;49.878;8.618;2022-09-09T16:03:05;21.20;99.90
39779;DHT22;25454;49.878;8.618;2022-09-09T16:08:05;21.20;99.90
39779;DHT22;25454;49.878;8.618;2022-09-09T16:13:06;21.20;99.90
39779;DHT22;25454;49.878;8.618;2022-09-09T16:18:07;21.10;99.90
39779;DHT22;25454;49.878;8.618;2022-09-09T16:23:07;20.80;99.90
39779;DHT22;25454;49.878;8.618;2022-09-09T16:28:08;20.50;99.90
39779;DHT22;25454;49.878;8.618;2022-09-09T16:33:08;20.30;99.90
39779;DHT22;25454;49.878;8.618;2022-09-09T16:38:09;20.10;99.90
39779;DHT22;25454;49.878;8.618;2022-09-09T16:43:10;19.90;99.90
39779;DHT22;25454;49.878;8.618;2022-09-09T16:48:12;19.70;99.90
39779;DHT22;25454;49.878;8.618;2022-09-09T16:53:13;19.50;99.90
39779;DHT22;25454;49.878;8.618;2022-09-09T16:58:14;19.30;99.90
39779;DHT22;25454;49.878;8.618;2022-09-09T17:03:14;19.20;99.90
39779;DHT22;25454;49.878;8.618;2022-09-09T17:08:16;19.00;99.90
39779;DHT22;25454;49.878;8.618;2022-09-09T17:13:17;18.80;99.90
39779;DHT22;25454;49.878;8.618;2022-09-09T17:18:20;18.60;99.90
39779;DHT22;25454;49.878;8.618;2022-09-09T17:23:21;18.50;99.90
39779;DHT22;25454;49.878;8.618;2022-09-09T17:28:21;18.40;99.90
39779;DHT22;25454;49.878;8.618;2022-09-09T17:33:29;18.30;99.90
39779;DHT22;25454;49.878;8.618;2022-09-09T17:38:34;18.30;99.90
39779;DHT22;25454;49.878;8.618;2022-09-09T17:43:35;18.10;99.90
39779;DHT22;25454;49.878;8.618;2022-09-09T17:48:38;18.00;99.90
39779;DHT22;25454;49.878;8.618;2022-09-09T17:53:44;17.80;99.90
39779;DHT22;25454;49.878;8.618;2022-09-09T17:58:49;17.70;99.90
39779;DHT22;25454;49.878;8.618;2022-09-09T18:03:50;17.60;99.90
39779;DHT22;25454;49.878;8.618;2022-09-09T18:08:53;17.50;99.90
39779;DHT22;25454;49.878;8.618;2022-09-09T18:14:00;17.40;99.90
39779;DHT22;25454;49.878;8.618;2022-09-09T18:19:02;17.30;99.90
39779;DHT22;25454;49.878;8.618;2022-09-09T18:24:05;17.30;99.90
39779;DHT22;25454;49.878;8.618;2022-09-09T18:29:09;17.20;99.90
39779;DHT22;25454;49.878;8.618;2022-09-09T18:34:12;17.20;99.90
39779;DHT22;25454;49.878;8.618;2022-09-09T18:39:15;17.10;99.90
39779;DHT22;25454;49.878;8.618;2022-09-09T18:44:19;17.20;99.90
39779;DHT22;25454;49.878;8.618;2022-09-09T18:49:22;17.10;99.90
39779;DHT22;25454;49.878;8.618;2022-09-09T18:54:28;17.10;99.90
39779;DHT22;25454;49.878;8.618;2022-09-09T18:59:30;17.00;99.90
39779;DHT22;25454;49.878;8.618;2022-09-09T19:04:30;16.90;99.90
39779;DHT22;25454;49.878;8.618;2022-09-09T19:09:33;16.70;99.90
39779;DHT22;25454;49.878;8.618;2022-09-09T19:14:34;16.60;99.90
39779;DHT22;25454;49.878;8.618;2022-09-09T19:19:34;16.50;99.90
39779;DHT22;25454;49.878;8.618;2022-09-09T19:24:36;16.40;99.90
39779;DHT22;25454;49.878;8.618;2022-09-09T19:29:37;16.40;99.90
39779;DHT22;25454;49.878;8.618;2022-09-09T19:34:42;16.40;99.90
39779;DHT22;25454;49.878;8.618;2022-09-09T19:39:43;16.40;99.90
39779;DHT22;25454;49.878;8.618;2022-09-09T19:44:45;16.40;99.90
39779;DHT22;25454;49.878;8.618;2022-09-09T19:49:45;16.30;99.90
39779;DHT22;25454;49.878;8.618;2022-09-09T19:54:49;16.10;99.90
39779;DHT22;25454;49.878;8.618;2022-09-09T19:59:50;16.00;99.90
39779;DHT22;25454;49.878;8.618;2022-09-09T20:04:50;15.90;99.90
39779;DHT22;25454;49.878;8.618;2022-09-09T20:09:51;15.90;99.90
39779;DHT22;25454;49.878;8.618;2022-09-09T20:14:54;15.80;99.90
39779;DHT22;25454;49.878;8.618;2022-09-09T20:19:54;15.80;99.90
39779;DHT22;25454;49.878;8.618;2022-09-09T20:24:55;15.70;99.90
39779;DHT22;25454;49.878;8.618;2022-09-09T20:29:55;15.70;99.90
39779;DHT22;25454;49.878;8.618;2022-09-09T20:34:56;15.70;99.90
39779;DHT22;25454;49.878;8.618;2022-09-09T20:39:57;15.60;99.90
39779;DHT22;25454;49.878;8.618;2022-09-09T20:44:59;15.50;99.90
39779;DHT22;25454;49.878;8.618;2022-09-09T20:49:59;15.50;99.90
39779;DHT22;25454;49.878;8.618;2022-09-09T20:55:00;15.40;99.90
39779;DHT22;25454;49.878;8.618;2022-09-09T21:00:02;15.30;99.90
39779;DHT22;25454;49.878;8.618;2022-09-09T21:05:04;15.30;99.90
39779;DHT22;25454;49.878;8.618;2022-09-09T21:10:05;15.30;99.90
39779;DHT22;25454;49.878;8.618;2022-09-09T21:15:09;15.30;99.90
39779;DHT22;25454;49.878;8.618;2022-09-09T21:20:10;15.30;99.90
39779;DHT22;25454;49.878;8.618;2022-09-09T21:25:11;15.40;99.90
39779;DHT22;25454;49.878;8.618;2022-09-09T21:30:13;15.40;99.90
39779;DHT22;25454;49.878;8.618;2022-09-09T21:35:13;15.40;99.90
39779;DHT22;25454;49.878;8.618;2022-09-09T21:40:15;15.40;99.90
39779;DHT22;25454;49.878;8.618;2022-09-09T21:45:16;15.30;99.90
39779;DHT22;25454;49.878;8.618;2022-09-09T21:50:19;15.20;99.90
39779;DHT22;25454;49.878;8.618;2022-09-09T21:55:21;15.20;99.90
39779;DHT22;25454;49.878;8.618;2022-09-09T22:00:21;15.00;99.90
39779;DHT22;25454;49.878;8.618;2022-09-09T22:05:23;15.00;99.90
39779;DHT22;25454;49.878;8.618;2022-09-09T22:10:24;15.00;99.90
39779;DHT22;25454;49.878;8.618;2022-09-09T22:15:30;14.90;99.90
39779;DHT22;25454;49.878;8.618;2022-09-09T22:20:33;14.90;99.90
39779;DHT22;25454;49.878;8.618;2022-09-09T22:25:39;14.90;99.90
39779;DHT22;25454;49.878;8.618;2022-09-09T22:30:40;14.90;99.90
39779;DHT22;25454;49.878;8.618;2022-09-09T22:35:41;14.80;99.90
39779;DHT22;25454;49.878;8.618;2022-09-09T22:40:42;14.70;99.90
39779;DHT22;25454;49.878;8.618;2022-09-09T22:45:46;14.70;99.90
39779;DHT22;25454;49.878;8.618;2022-09-09T22:50:47;14.70;99.90
39779;DHT22;25454;49.878;8.618;2022-09-09T22:55:59;14.70;99.90
39779;DHT22;25454;49.878;8.618;2022-09-09T23:01:07;14.60;99.90
39779;DHT22;25454;49.878;8.618;2022-09-09T23:06:10;14.60;99.90
39779;DHT22;25454;49.878;8.618;2022-09-09T23:11:11;14.60;99.90
39779;DHT22;25454;49.878;8.618;2022-09-09T23:16:15;14.70;99.90
39779;DHT22;25454;49.878;8.618;2022-09-09T23:21:15;14.70;99.90
39779;DHT22;25454;49.878;8.618;2022-09-09T23:26:16;14.70;99.90
39779;DHT22;25454;49.878;8.618;2022-09-09T23:31:21;14.70;99.90
39779;DHT22;25454;49.878;8.618;2022-09-09T23:36:24;14.70;99.90
39779;DHT22;25454;49.878;8.618;2022-09-09T23:41:25;14.70;99.90
39779;DHT22;25454;49.878;8.618;2022-09-09T23:46:28;14.70;99.90
39779;DHT22;25454;49.878;8.618;2022-09-09T23:51:30;14.80;99.90
39779;DHT22;25454;49.878;8.618;2022-09-09T23:56:41;14.80;99.90
